Buoy 62726

sailwx.info

Track history (hours):
 
Tides and Currents Weather Stations Pressure Air Temp Water Temp Dewpoint Dewpoint Depression Visibility Wind Speed Wind Dir Waves Ship Positions

Drifting buoy 62726

Last reported at 2015-Jul-06 17:00 UTC. Time now 2015-Jul-06 22:11 UTC.
Position N 37°38' W 019°39'.

Water temperature 22.1 ° C

Date/timePositionNaut miles runAvg speedWind from/ knotsBaromVisibWave heightAir tempDewpointWater temp
2015-Jul-06 17:00N 37°38' W 019°39'2 0.6 22.1
2015-Jul-06 14:00N 37°38' W 019°41'4 0.4 21.9
2015-Jul-06 05:00N 37°36' W 019°45'2 0.4 21.2
2015-Jul-05 22:00N 37°36' W 019°41'1 0.8 21.3
2015-Jul-05 21:00N 37°36' W 019°41'0 0.3 21.5
2015-Jul-05 20:00N 37°36' W 019°42'1 0.7 21.6
2015-Jul-05 18:00N 37°38' W 019°42'0 0.0 21.9
2015-Jul-05 17:00N 37°38' W 019°42'1 0.7 21.7
2015-Jul-05 16:00N 37°38' W 019°43'3 0.3 22.0
2015-Jul-05 07:00N 37°35' W 019°44'1 0.8 20.8
2015-Jul-05 06:00N 37°35' W 019°43'1 0.3 20.9
2015-Jul-05 02:00N 37°37' W 019°43'1 0.1 21.1
2015-Jul-04 17:00N 37°37' W 019°42'0 0.4 21.5
2015-Jul-04 16:00N 37°37' W 019°42'3 0.7 21.5
2015-Jul-04 11:00N 37°36' W 019°38'1 0.2 20.8
2015-Jul-04 08:00N 37°36' W 019°37'3 0.4 20.5
2015-Jul-03 23:00N 37°38' W 019°34'1 0.6 20.6
2015-Jul-03 21:00N 37°39' W 019°35'0 0.0 20.8
2015-Jul-03 20:00N 37°39' W 019°35'0 0.1 20.9
2015-Jul-03 18:00N 37°39' W 019°34'0 0.2 20.9
2015-Jul-03 16:00N 37°39' W 019°35'2 0.8 20.8
2015-Jul-03 14:00N 37°38' W 019°33'0 0.0 20.7
2015-Jul-03 13:00N 37°38' W 019°33'2 0.4 20.5
2015-Jul-03 09:00N 37°39' W 019°33'0 0.0 20.3
2015-Jul-03 08:00N 37°39' W 019°33'1 0.4 20.3
2015-Jul-03 06:00N 37°40' W 019°34'4 0.5 20.3
2015-Jul-02 23:00N 37°39' W 019°39'0 0.0 20.6
2015-Jul-02 22:00N 37°39' W 019°39'1 0.5 20.6
2015-Jul-02 19:00N 37°38' W 019°41'4 1.4 20.7
2015-Jul-02 16:00N 37°36' W 019°45'3 0.7 20.8
2015-Jul-02 11:00N 37°33' W 019°46'3 0.4 20.5
2015-Jul-02 05:00N 37°31' W 019°45'2 0.2 20.3
2015-Jul-01 21:00N 37°29' W 019°44'1 0.1 20.5
2015-Jul-01 15:00N 37°30' W 019°45'0 0.0 20.8
2015-Jul-01 14:00N 37°30' W 019°45'1 0.3 20.8
2015-Jul-01 11:00N 37°29' W 019°44'1 1.0 20.7
2015-Jul-01 10:00N 37°28' W 019°44'1 1.3 20.7
2015-Jul-01 09:00N 37°29' W 019°42'0 0.3 20.6
2015-Jul-01 08:00N 37°29' W 019°42'1 0.7 20.6
2015-Jul-01 06:00N 37°30' W 019°41'4 0.5 20.7
2015-Jun-30 22:00N 37°34' W 019°43'2 0.3 21.0
2015-Jun-30 16:00N 37°32' W 019°42'4 0.7 21.1
2015-Jun-30 10:00N 37°33' W 019°37'1 1.5 20.7
2015-Jun-30 09:00N 37°34' W 019°36'0 0.0 20.7
2015-Jun-30 08:00N 37°34' W 019°36'4 0.2 21.0
2015-Jun-29 09:00N 37°33' W 019°42'0 0.1 21.9
2015-Jun-29 06:00N 37°34' W 019°42'0 0.1 22.0
2015-Jun-29 03:00N 37°34' W 019°42'2 0.5 22.1
2015-Jun-28 23:00N 37°32' W 019°41'4 0.2 22.5
2015-Jun-28 05:00N 37°31' W 019°36'1 0.5 21.4
2015-Jun-28 03:00N 37°30' W 019°35'4 0.3 21.4
2015-Jun-27 14:00N 37°32' W 019°30'3 0.2 22.2
2015-Jun-27 02:00N 37°31' W 019°27'   21.3
Track history (hours):
 
Tides and Currents Weather Stations Pressure Air Temp Water Temp Dewpoint Dewpoint Depression Visibility Wind Speed Wind Dir Waves Ship Positions

Drifting buoy 62726

Last reported at 2015-Jul-06 17:00 UTC. Time now 2015-Jul-06 22:11 UTC.
Position N 37°38' W 019°39'.

Water temperature 22.1 ° C

Date/timePositionNaut miles runAvg speedWind from/ knotsBaromVisibWave heightAir tempDewpointWater temp
2015-Jul-06 17:00N 37°38' W 019°39'2 0.6 22.1
2015-Jul-06 14:00N 37°38' W 019°41'4 0.4 21.9
2015-Jul-06 05:00N 37°36' W 019°45'2 0.4 21.2
2015-Jul-05 22:00N 37°36' W 019°41'1 0.8 21.3
2015-Jul-05 21:00N 37°36' W 019°41'0 0.3 21.5
2015-Jul-05 20:00N 37°36' W 019°42'1 0.7 21.6
2015-Jul-05 18:00N 37°38' W 019°42'0 0.0 21.9
2015-Jul-05 17:00N 37°38' W 019°42'1 0.7 21.7
2015-Jul-05 16:00N 37°38' W 019°43'3 0.3 22.0
2015-Jul-05 07:00N 37°35' W 019°44'1 0.8 20.8
2015-Jul-05 06:00N 37°35' W 019°43'1 0.3 20.9
2015-Jul-05 02:00N 37°37' W 019°43'1 0.1 21.1
2015-Jul-04 17:00N 37°37' W 019°42'0 0.4 21.5
2015-Jul-04 16:00N 37°37' W 019°42'3 0.7 21.5
2015-Jul-04 11:00N 37°36' W 019°38'1 0.2 20.8
2015-Jul-04 08:00N 37°36' W 019°37'3 0.4 20.5
2015-Jul-03 23:00N 37°38' W 019°34'1 0.6 20.6
2015-Jul-03 21:00N 37°39' W 019°35'0 0.0 20.8
2015-Jul-03 20:00N 37°39' W 019°35'0 0.1 20.9
2015-Jul-03 18:00N 37°39' W 019°34'0 0.2 20.9
2015-Jul-03 16:00N 37°39' W 019°35'2 0.8 20.8
2015-Jul-03 14:00N 37°38' W 019°33'0 0.0 20.7
2015-Jul-03 13:00N 37°38' W 019°33'2 0.4 20.5
2015-Jul-03 09:00N 37°39' W 019°33'0 0.0 20.3
2015-Jul-03 08:00N 37°39' W 019°33'1 0.4 20.3
2015-Jul-03 06:00N 37°40' W 019°34'4 0.5 20.3
2015-Jul-02 23:00N 37°39' W 019°39'0 0.0 20.6
2015-Jul-02 22:00N 37°39' W 019°39'1 0.5 20.6
2015-Jul-02 19:00N 37°38' W 019°41'4 1.4 20.7
2015-Jul-02 16:00N 37°36' W 019°45'3 0.7 20.8
2015-Jul-02 11:00N 37°33' W 019°46'3 0.4 20.5
2015-Jul-02 05:00N 37°31' W 019°45'2 0.2 20.3
2015-Jul-01 21:00N 37°29' W 019°44'1 0.1 20.5
2015-Jul-01 15:00N 37°30' W 019°45'0 0.0 20.8
2015-Jul-01 14:00N 37°30' W 019°45'1 0.3 20.8
2015-Jul-01 11:00N 37°29' W 019°44'1 1.0 20.7
2015-Jul-01 10:00N 37°28' W 019°44'1 1.3 20.7
2015-Jul-01 09:00N 37°29' W 019°42'0 0.3 20.6
2015-Jul-01 08:00N 37°29' W 019°42'1 0.7 20.6
2015-Jul-01 06:00N 37°30' W 019°41'4 0.5 20.7
2015-Jun-30 22:00N 37°34' W 019°43'2 0.3 21.0
2015-Jun-30 16:00N 37°32' W 019°42'4 0.7 21.1
2015-Jun-30 10:00N 37°33' W 019°37'1 1.5 20.7
2015-Jun-30 09:00N 37°34' W 019°36'0 0.0 20.7
2015-Jun-30 08:00N 37°34' W 019°36'4 0.2 21.0
2015-Jun-29 09:00N 37°33' W 019°42'0 0.1 21.9
2015-Jun-29 06:00N 37°34' W 019°42'0 0.1 22.0
2015-Jun-29 03:00N 37°34' W 019°42'2 0.5 22.1
2015-Jun-28 23:00N 37°32' W 019°41'4 0.2 22.5
2015-Jun-28 05:00N 37°31' W 019°36'1 0.5 21.4
2015-Jun-28 03:00N 37°30' W 019°35'4 0.3 21.4
2015-Jun-27 14:00N 37°32' W 019°30'3 0.2 22.2
2015-Jun-27 02:00N 37°31' W 019°27'   21.3

Dump ship's entire track history